Overview Statistics Trail Chart Weather Telemetry Raw packets
 

This is the latest recevied weather packets stored in our database for station/object KI4KWR-1. If no packets are shown the sender has not sent any weather packets the latest 10 day(s).

<< 5 6 7 8 9 10 11 >>
Time Temp. Humidity Pressure Rain* Wind** Luminosity Snow
1788473704 32.78° C 57% 985.6 hPa 0 mm - - -
1788472804 33.33° C 52% 985.6 hPa 0 mm - - -
1788471904 34.44° C 49% 985.6 hPa 0 mm - - -
1788471004 36.11° C 44% 985.7 hPa 0 mm - - -
1788470104 36.67° C 42% 985.8 hPa 0 mm - - -
1788469204 36.11° C 44% 985.9 hPa 0 mm - - -
1788468304 36.11° C 44% 986 hPa 0 mm - - -
1788467403 37.22° C 40% 986.2 hPa 0 mm - - -
1788466504 36.67° C 42% 986.4 hPa 0 mm - - -
1788465619 36.67° C 40% 986.6 hPa 0 mm - - -
1788464703 36.11° C 45% 986.7 hPa 0 mm - - -
1788463804 37.22° C 41% 986.9 hPa 0 mm - - -
1788462904 37.78° C 39% 987 hPa 0 mm - - -
1788462003 36.11° C 45% 987.3 hPa 0 mm - - -
1788461104 36.67° C 45% 987.5 hPa 0 mm - - -
1788460203 35.56° C 46% 987.6 hPa 0 mm - - -
1788459304 36.11° C 42% 987.7 hPa 0 mm - - -
1788458404 36.11° C 42% 987.8 hPa 0 mm - - -
1788457504 35.56° C 46% 988 hPa 0 mm - - -
1788456603 36.11° C 41% 988.2 hPa 0 mm - - -
1788455703 36.11° C 45% 988.4 hPa 0 mm - - -
1788454804 36.11° C 47% 988.6 hPa 0 mm - - -
1788453904 35° C 51% 988.7 hPa 0 mm - - -
1788453004 35° C 50% 988.9 hPa 0 mm - - -
1788452104 33.89° C 54% 989 hPa 0 mm - - -

* Rain latest hour (hover to see other rain measurements)
** Current wind speed in m/s (hover to see current wind gust speed)